createdAt,value
2023-04-22T00:01:58.072Z,4.60
2023-04-22T00:04:26.619Z,4.60
2023-04-22T00:06:55.130Z,4.60
2023-04-22T00:09:23.037Z,4.50
2023-04-22T00:11:51.146Z,4.50
2023-04-22T00:14:19.004Z,4.50
2023-04-22T00:16:48.301Z,4.40
2023-04-22T00:19:16.428Z,4.40
2023-04-22T00:21:44.275Z,4.40
2023-04-22T00:24:12.217Z,4.40
2023-04-22T00:26:40.377Z,4.50
2023-04-22T00:29:08.221Z,4.50
2023-04-22T00:31:36.112Z,4.50
2023-04-22T00:34:05.416Z,4.50
2023-04-22T00:36:33.350Z,4.50
2023-04-22T00:39:01.344Z,4.50
2023-04-22T00:41:30.986Z,4.40
2023-04-22T00:43:59.446Z,4.40
2023-04-22T00:46:27.789Z,4.30
2023-04-22T00:48:56.249Z,4.20
2023-04-22T00:51:25.986Z,4.10
2023-04-22T00:53:53.846Z,4.20
2023-04-22T00:56:22.662Z,4.10
2023-04-22T00:58:50.652Z,4.10
2023-04-22T01:01:18.761Z,4.10
2023-04-22T01:03:47.583Z,4.10
2023-04-22T01:06:16.017Z,4.10
2023-04-22T01:08:46.189Z,4.00
2023-04-22T01:11:14.731Z,4.00
2023-04-22T01:13:43.233Z,3.90
2023-04-22T01:16:11.920Z,3.80
2023-04-22T01:18:40.361Z,3.70
2023-04-22T01:21:08.618Z,3.70
2023-04-22T01:23:39.067Z,3.70
2023-04-22T01:26:07.089Z,3.70
2023-04-22T01:28:34.963Z,3.70
2023-04-22T01:31:03.639Z,3.60
2023-04-22T01:33:31.772Z,3.60
2023-04-22T01:35:59.646Z,3.70
2023-04-22T01:38:27.464Z,3.60
2023-04-22T01:40:56.922Z,3.60
2023-04-22T01:43:24.800Z,3.50
2023-04-22T01:45:52.692Z,3.50
2023-04-22T01:48:21.120Z,3.50
2023-04-22T01:50:49.048Z,3.50
2023-04-22T01:53:16.957Z,3.50
2023-04-22T01:55:44.876Z,3.50
2023-04-22T01:58:14.209Z,3.50
2023-04-22T02:00:42.062Z,3.50
2023-04-22T02:03:09.939Z,3.50
2023-04-22T02:05:37.954Z,3.50
2023-04-22T02:08:05.871Z,3.50
2023-04-22T02:10:33.786Z,3.50
2023-04-22T02:13:01.617Z,3.50
2023-04-22T02:15:31.088Z,3.40
2023-04-22T02:17:59.073Z,3.30
2023-04-22T02:20:26.926Z,3.30
2023-04-22T02:22:54.950Z,3.30
2023-04-22T02:25:22.788Z,3.30
2023-04-22T02:27:50.647Z,3.30
2023-04-22T02:30:18.536Z,3.30
2023-04-22T02:32:47.827Z,3.40
2023-04-22T02:35:15.766Z,3.30
2023-04-22T02:37:43.641Z,3.30
2023-04-22T02:40:12.127Z,3.20
2023-04-22T02:42:39.965Z,3.20
2023-04-22T02:45:08.288Z,3.10
2023-04-22T02:47:36.174Z,3.10
2023-04-22T02:50:05.751Z,3.10
2023-04-22T02:52:34.230Z,3.00
2023-04-22T02:55:02.200Z,3.00
2023-04-22T02:57:30.216Z,3.10
2023-04-22T02:59:58.104Z,3.00
2023-04-22T03:02:26.086Z,3.00
2023-04-22T03:04:54.560Z,3.00
2023-04-22T03:07:23.744Z,3.00
2023-04-22T03:09:51.582Z,3.00
2023-04-22T03:12:19.509Z,2.90
2023-04-22T03:14:47.345Z,2.90
2023-04-22T03:17:15.218Z,2.80
2023-04-22T03:19:43.169Z,2.90
2023-04-22T03:22:11.281Z,3.00
2023-04-22T03:24:40.500Z,2.90
2023-04-22T03:27:08.391Z,3.00
2023-04-22T03:29:36.296Z,2.90
2023-04-22T03:32:04.234Z,2.90
2023-04-22T03:34:32.111Z,2.80
2023-04-22T03:37:00.018Z,2.70
2023-04-22T03:39:27.864Z,2.70
2023-04-22T03:41:57.199Z,2.70
2023-04-22T03:44:25.051Z,2.70
2023-04-22T03:46:52.967Z,2.60
2023-04-22T03:49:21.310Z,2.60
2023-04-22T03:51:49.163Z,2.60
2023-04-22T03:54:17.018Z,2.70
2023-04-22T03:56:44.839Z,2.70
2023-04-22T03:59:14.118Z,2.70
2023-04-22T04:01:41.998Z,2.60
2023-04-22T04:04:10.104Z,2.60
2023-04-22T04:06:38.382Z,2.60
2023-04-22T04:09:06.289Z,2.60
2023-04-22T04:11:34.254Z,2.60
2023-04-22T04:14:03.436Z,2.60
2023-04-22T04:16:33.078Z,2.60
2023-04-22T04:19:01.012Z,2.50
2023-04-22T04:21:29.399Z,2.50
2023-04-22T04:23:57.278Z,2.50
2023-04-22T04:26:25.158Z,2.50
2023-04-22T04:28:53.626Z,2.40
2023-04-22T04:31:21.542Z,2.50
2023-04-22T04:33:50.889Z,2.50
2023-04-22T04:36:18.917Z,2.50
2023-04-22T04:38:47.970Z,2.60
2023-04-22T04:41:15.857Z,2.60
2023-04-22T04:43:46.421Z,2.70
2023-04-22T04:46:14.640Z,2.70
2023-04-22T04:48:43.022Z,2.70
2023-04-22T04:51:13.032Z,2.80
2023-04-22T04:53:41.404Z,2.90
2023-04-22T04:56:09.294Z,2.90
2023-04-22T04:58:37.188Z,3.00
2023-04-22T05:01:05.096Z,3.10
2023-04-22T05:03:33.315Z,3.20
2023-04-22T05:06:01.289Z,3.20
2023-04-22T05:08:30.500Z,3.30
2023-04-22T05:10:58.344Z,3.30
2023-04-22T05:13:27.537Z,3.40
2023-04-22T05:15:55.428Z,3.50
2023-04-22T05:18:23.347Z,3.60
2023-04-22T05:20:51.206Z,3.70
2023-04-22T05:23:19.145Z,3.80
2023-04-22T05:25:49.178Z,3.90
2023-04-22T05:28:18.278Z,4.10
2023-04-22T05:30:46.201Z,4.30
2023-04-22T05:33:14.126Z,4.40
2023-04-22T05:35:42.024Z,4.50
2023-04-22T05:38:10.447Z,4.70
2023-04-22T05:40:38.277Z,4.80
2023-04-22T05:43:07.551Z,4.90
2023-04-22T05:45:35.705Z,5.10
2023-04-22T05:48:03.589Z,5.20
2023-04-22T05:50:31.531Z,5.40
2023-04-22T05:52:59.464Z,5.60
2023-04-22T05:55:27.877Z,5.70
2023-04-22T05:57:55.772Z,5.90
2023-04-22T06:00:24.969Z,6.20
2023-04-22T06:02:52.999Z,6.30
2023-04-22T06:05:21.132Z,6.50
2023-04-22T06:07:49.046Z,6.80
2023-04-22T06:10:16.871Z,7.10
2023-04-22T06:12:44.943Z,7.40
2023-04-22T06:15:12.840Z,7.60
2023-04-22T06:17:42.221Z,7.90
2023-04-22T06:20:10.464Z,8.20
2023-04-22T06:22:38.388Z,8.40
2023-04-22T06:25:06.791Z,8.60
2023-04-22T06:27:34.648Z,8.80
2023-04-22T06:30:02.518Z,9.10
2023-04-22T06:32:30.404Z,9.30
2023-04-22T06:34:59.613Z,9.50
2023-04-22T06:37:27.580Z,9.70
2023-04-22T06:39:55.768Z,9.90
2023-04-22T06:42:24.035Z,10.10
2023-04-22T06:44:52.014Z,10.30
2023-04-22T06:47:20.061Z,10.50
2023-04-22T06:49:48.000Z,10.70
2023-04-22T06:52:17.229Z,10.90
2023-04-22T06:54:45.201Z,11.10
2023-04-22T06:57:13.057Z,11.30
2023-04-22T06:59:41.915Z,11.40
2023-04-22T07:02:11.289Z,11.70
2023-04-22T07:04:39.256Z,11.80
2023-04-22T07:07:07.215Z,12.00
2023-04-22T07:09:36.914Z,12.20
2023-04-22T07:12:05.197Z,12.30
2023-04-22T07:14:33.602Z,12.40
2023-04-22T07:17:01.457Z,12.50
2023-04-22T07:19:30.086Z,12.70
2023-04-22T07:21:57.994Z,12.90
2023-04-22T07:24:26.110Z,13.20
2023-04-22T07:26:55.352Z,13.40
2023-04-22T07:29:23.332Z,13.50
2023-04-22T07:31:51.350Z,13.60
2023-04-22T07:34:19.283Z,13.70
2023-04-22T07:36:47.272Z,13.90
2023-04-22T07:39:15.245Z,14.00
2023-04-22T07:41:43.097Z,14.10
2023-04-22T07:44:16.432Z,14.20
2023-04-22T07:46:44.510Z,14.50
2023-04-22T07:49:14.079Z,14.70
2023-04-22T07:51:42.207Z,14.90
2023-04-22T07:54:10.123Z,15.10
2023-04-22T07:56:38.032Z,15.30
2023-04-22T07:59:06.077Z,15.40
2023-04-22T08:01:35.406Z,15.50
2023-04-22T08:04:03.595Z,15.70
2023-04-22T08:06:31.961Z,15.80
2023-04-22T08:08:59.873Z,15.90
2023-04-22T08:11:27.766Z,16.00
2023-04-22T08:13:55.699Z,16.20
2023-04-22T08:16:23.692Z,16.30
2023-04-22T08:18:53.195Z,16.50
2023-04-22T08:21:21.094Z,16.60
2023-04-22T08:23:48.972Z,16.70
2023-04-22T08:26:16.981Z,16.90
2023-04-22T08:28:44.915Z,17.10
2023-04-22T08:31:13.079Z,17.20
2023-04-22T08:33:41.514Z,17.30
2023-04-22T08:36:11.454Z,17.50
2023-04-22T08:38:39.371Z,17.60
2023-04-22T08:41:07.358Z,17.80
2023-04-22T08:43:35.565Z,18.00
2023-04-22T08:46:03.574Z,18.20
2023-04-22T08:48:31.635Z,18.40
2023-04-22T08:50:59.640Z,18.60
2023-04-22T08:53:28.921Z,18.50
2023-04-22T08:55:57.202Z,18.90
2023-04-22T08:58:25.372Z,19.10
2023-04-22T09:00:53.751Z,19.10
2023-04-22T09:03:22.348Z,19.10
2023-04-22T09:05:52.342Z,19.30
2023-04-22T09:08:20.321Z,19.50
2023-04-22T09:10:49.726Z,19.70
2023-04-22T09:13:17.962Z,20.00
2023-04-22T09:15:46.248Z,20.00
2023-04-22T09:18:17.868Z,20.10
2023-04-22T09:20:47.523Z,20.40
2023-04-22T09:23:15.904Z,20.60
2023-04-22T09:25:46.310Z,20.70
2023-04-22T09:28:19.545Z,20.90
2023-04-22T09:30:47.727Z,20.90
2023-04-22T09:33:17.290Z,21.00
2023-04-22T09:35:45.338Z,21.10
2023-04-22T09:38:13.977Z,21.20
2023-04-22T09:40:43.270Z,21.30
2023-04-22T09:43:11.553Z,21.40
2023-04-22T09:45:43.412Z,21.40
2023-04-22T09:48:12.547Z,21.70
2023-04-22T09:50:41.083Z,21.80
2023-04-22T09:53:10.032Z,22.00
2023-04-22T09:55:39.825Z,22.00
2023-04-22T09:58:09.631Z,22.10
2023-04-22T10:00:38.836Z,22.30
2023-04-22T10:03:10.895Z,22.30
2023-04-22T10:05:39.322Z,22.30
2023-04-22T10:08:08.044Z,22.60
2023-04-22T10:10:36.386Z,22.90
2023-04-22T10:13:05.149Z,23.10
2023-04-22T10:15:33.544Z,23.10
2023-04-22T10:18:01.930Z,23.00
2023-04-22T10:20:32.161Z,23.00
2023-04-22T10:23:00.072Z,23.40
2023-04-22T10:25:28.548Z,23.60
2023-04-22T10:27:56.526Z,23.70
2023-04-22T10:30:28.087Z,23.70
2023-04-22T10:32:56.148Z,23.50
2023-04-22T10:35:28.162Z,23.60
2023-04-22T10:37:57.428Z,23.80
2023-04-22T10:40:25.554Z,23.90
2023-04-22T10:42:55.870Z,24.00
2023-04-22T10:45:26.495Z,24.30
2023-04-22T10:47:54.497Z,24.40
2023-04-22T10:50:23.960Z,24.50
2023-04-22T10:52:52.822Z,24.50
2023-04-22T10:55:22.474Z,24.70
2023-04-22T10:57:51.272Z,24.80
2023-04-22T11:00:45.677Z,24.80
2023-04-22T11:03:20.745Z,25.10
2023-04-22T11:05:48.737Z,25.20
2023-04-22T11:08:20.499Z,25.40
2023-04-22T11:10:50.720Z,25.50
2023-04-22T11:13:19.380Z,25.60
2023-04-22T11:15:47.837Z,25.50
2023-04-22T11:18:18.186Z,25.40
2023-04-22T11:20:48.331Z,25.60
2023-04-22T11:23:20.669Z,25.90
2023-04-22T11:25:54.716Z,26.00
2023-04-22T11:28:23.451Z,26.20
2023-04-22T11:30:51.910Z,26.20
2023-04-22T11:33:20.038Z,26.00
2023-04-22T11:35:50.084Z,25.80
2023-04-22T11:38:17.915Z,25.70
2023-04-22T11:40:47.215Z,25.30
2023-04-22T11:43:18.549Z,25.50
2023-04-22T11:45:46.708Z,25.80
2023-04-22T11:48:15.568Z,26.00
2023-04-22T11:50:44.810Z,25.90
2023-04-22T11:53:14.980Z,26.00
2023-04-22T11:55:43.412Z,26.00
2023-04-22T11:58:11.970Z,25.80
2023-04-22T12:00:42.875Z,25.90
2023-04-22T12:03:15.484Z,26.20
2023-04-22T12:05:44.521Z,26.30
2023-04-22T12:08:13.590Z,26.50
2023-04-22T12:10:43.025Z,26.70
2023-04-22T12:13:11.150Z,26.80
2023-04-22T12:15:41.414Z,27.10
2023-04-22T12:18:09.307Z,27.00
2023-04-22T12:20:37.660Z,27.10
2023-04-22T12:23:05.571Z,27.30
2023-04-22T12:25:34.613Z,27.30
2023-04-22T12:28:02.484Z,27.60
2023-04-22T12:30:30.332Z,27.80
2023-04-22T12:32:59.644Z,28.10
2023-04-22T12:35:27.509Z,28.00
2023-04-22T12:37:55.454Z,28.00
2023-04-22T12:40:23.500Z,27.70
2023-04-22T12:42:51.434Z,27.60
2023-04-22T12:45:19.259Z,27.30
2023-04-22T12:47:47.215Z,27.30
2023-04-22T12:50:16.582Z,27.20
2023-04-22T12:52:44.517Z,27.30
2023-04-22T12:55:12.460Z,27.50
2023-04-22T12:57:40.320Z,27.50
2023-04-22T13:00:14.180Z,27.70
2023-04-22T13:02:42.899Z,28.00
2023-04-22T13:05:11.418Z,27.90
2023-04-22T13:07:41.312Z,28.00
2023-04-22T13:10:10.182Z,28.00
2023-04-22T13:12:38.619Z,28.10
2023-04-22T13:15:07.311Z,28.10
2023-04-22T13:17:35.628Z,28.20
2023-04-22T13:20:04.891Z,28.00
2023-04-22T13:22:33.092Z,28.00
2023-04-22T13:25:02.540Z,27.90
2023-04-22T13:27:30.405Z,27.90
2023-04-22T13:29:58.398Z,28.00
2023-04-22T13:32:26.265Z,28.00
2023-04-22T13:34:54.131Z,28.00
2023-04-22T13:37:22.007Z,28.20
2023-04-22T13:39:50.524Z,28.20
2023-04-22T13:42:19.782Z,28.50
2023-04-22T13:44:47.664Z,28.70
2023-04-22T13:47:15.630Z,29.10
2023-04-22T13:49:44.087Z,29.10
2023-04-22T13:52:12.473Z,29.10
2023-04-22T13:54:40.359Z,29.20
2023-04-22T13:57:08.244Z,29.40
2023-04-22T13:59:37.665Z,29.50
2023-04-22T14:02:05.724Z,29.30
2023-04-22T14:04:34.085Z,29.40
2023-04-22T14:07:02.652Z,29.20
2023-04-22T14:09:30.538Z,29.20
2023-04-22T14:11:58.383Z,29.00
2023-04-22T14:14:26.346Z,28.70
2023-04-22T14:16:55.955Z,28.70
2023-04-22T14:19:24.936Z,28.50
2023-04-22T14:21:52.923Z,28.60
2023-04-22T14:24:20.846Z,28.60
2023-04-22T14:26:48.783Z,28.40
2023-04-22T14:29:16.674Z,28.10
2023-04-22T14:31:44.571Z,28.10
2023-04-22T14:34:13.823Z,28.20
2023-04-22T14:36:41.840Z,28.10
2023-04-22T14:39:09.703Z,28.10
2023-04-22T14:41:37.560Z,28.10
2023-04-22T14:44:05.550Z,28.00
2023-04-22T14:46:33.542Z,28.10
2023-04-22T14:49:01.537Z,28.30
2023-04-22T14:51:31.595Z,28.10
2023-04-22T14:53:59.462Z,27.80
2023-04-22T14:56:27.360Z,27.40
2023-04-22T14:58:55.292Z,27.00
2023-04-22T15:01:23.197Z,26.70
2023-04-22T15:03:52.116Z,26.40
2023-04-22T15:06:20.105Z,26.10
2023-04-22T15:08:51.575Z,26.00
2023-04-22T15:11:19.487Z,25.80
2023-04-22T15:13:47.561Z,25.60
2023-04-22T15:16:15.470Z,25.40
2023-04-22T15:18:43.444Z,25.20
2023-04-22T15:21:11.300Z,24.90
2023-04-22T15:23:39.184Z,24.60
2023-04-22T15:26:08.544Z,24.40
2023-04-22T15:28:36.681Z,24.40
2023-04-22T15:31:04.651Z,24.20
2023-04-22T15:33:32.550Z,24.20
2023-04-22T15:36:00.586Z,24.00
2023-04-22T15:38:28.705Z,24.00
2023-04-22T15:40:56.580Z,23.80
2023-04-22T15:43:25.838Z,23.80
2023-04-22T15:45:53.788Z,23.80
2023-04-22T15:48:21.627Z,23.80
2023-04-22T15:50:49.448Z,23.80
2023-04-22T15:53:17.325Z,23.70
2023-04-22T15:55:46.315Z,23.60
2023-04-22T15:58:15.243Z,23.50
2023-04-22T16:00:44.518Z,23.50
2023-04-22T16:03:12.463Z,23.20
2023-04-22T16:05:40.384Z,22.90
2023-04-22T16:08:08.215Z,22.50
2023-04-22T16:10:36.133Z,22.30
2023-04-22T16:13:03.987Z,22.00
2023-04-22T16:15:31.876Z,21.90
2023-04-22T16:18:01.311Z,21.80
2023-04-22T16:20:29.264Z,21.60
2023-04-22T16:22:57.121Z,21.40
2023-04-22T16:25:24.960Z,21.30
2023-04-22T16:27:52.833Z,21.10
2023-04-22T16:30:20.684Z,21.00
2023-04-22T16:32:48.559Z,20.80
2023-04-22T16:35:17.877Z,20.70
2023-04-22T16:37:45.734Z,20.50
2023-04-22T16:40:13.742Z,20.40
2023-04-22T16:42:41.602Z,20.20
2023-04-22T16:45:09.826Z,20.00
2023-04-22T16:47:37.756Z,19.90
2023-04-22T16:50:06.301Z,19.70
2023-04-22T16:52:35.505Z,19.60
2023-04-22T16:55:05.145Z,19.50
2023-04-22T16:57:33.110Z,19.40
2023-04-22T17:00:00.940Z,19.30
2023-04-22T17:02:28.884Z,19.20
2023-04-22T17:04:56.856Z,19.00
2023-04-22T17:07:24.700Z,18.80
2023-04-22T17:09:53.883Z,18.80
2023-04-22T17:12:21.726Z,18.60
2023-04-22T17:14:49.651Z,18.50
2023-04-22T17:17:17.490Z,18.40
2023-04-22T17:19:45.375Z,18.30
2023-04-22T17:22:13.190Z,18.10
2023-04-22T17:24:41.607Z,18.00
2023-04-22T17:27:14.641Z,17.80
2023-04-22T17:29:42.723Z,17.70
2023-04-22T17:32:10.740Z,17.60
2023-04-22T17:34:38.653Z,17.40
2023-04-22T17:37:06.644Z,17.30
2023-04-22T17:39:34.495Z,17.20
2023-04-22T17:42:02.700Z,17.00
2023-04-22T17:44:32.160Z,16.90
2023-04-22T17:47:00.065Z,16.80
2023-04-22T17:49:28.075Z,16.70
2023-04-22T17:51:55.951Z,16.60
2023-04-22T17:54:24.139Z,16.50
2023-04-22T17:56:52.005Z,16.50
2023-04-22T17:59:19.982Z,16.40
2023-04-22T18:01:49.266Z,16.30
2023-04-22T18:04:17.253Z,16.20
2023-04-22T18:06:45.140Z,16.10
2023-04-22T18:09:13.007Z,16.00
2023-04-22T18:11:41.101Z,15.90
2023-04-22T18:14:08.998Z,15.80
2023-04-22T18:16:36.900Z,15.70
2023-04-22T18:19:07.428Z,15.60
2023-04-22T18:21:36.901Z,15.60
2023-04-22T18:24:08.373Z,15.40
2023-04-22T18:26:36.283Z,15.30
2023-04-22T18:29:04.141Z,15.20
2023-04-22T18:31:32.059Z,15.10
2023-04-22T18:33:59.936Z,15.10
2023-04-22T18:36:29.745Z,15.00
2023-04-22T18:38:57.584Z,14.90
2023-04-22T18:41:26.302Z,14.80
2023-04-22T18:43:54.244Z,14.80
2023-04-22T18:46:22.266Z,14.60
2023-04-22T18:48:50.113Z,14.60
2023-04-22T18:51:17.943Z,14.50
2023-04-22T18:53:48.954Z,14.40
2023-04-22T18:56:16.846Z,14.30
2023-04-22T18:58:45.051Z,14.20
2023-04-22T19:01:13.033Z,14.10
2023-04-22T19:03:41.340Z,14.00
2023-04-22T19:06:09.304Z,14.00
2023-04-22T19:08:37.129Z,13.90
2023-04-22T19:11:06.447Z,13.80
2023-04-22T19:13:34.280Z,13.80
2023-04-22T19:16:02.171Z,13.70
2023-04-22T19:18:30.044Z,13.70
2023-04-22T19:20:57.911Z,13.60
2023-04-22T19:23:25.919Z,13.60
2023-04-22T19:25:53.800Z,13.50
2023-04-22T19:28:23.017Z,13.40
2023-04-22T19:30:50.891Z,13.30
2023-04-22T19:33:18.766Z,13.20
2023-04-22T19:35:46.788Z,13.20
2023-04-22T19:38:19.026Z,13.10
2023-04-22T19:40:47.393Z,13.00
2023-04-22T19:43:17.010Z,12.90
2023-04-22T19:45:46.530Z,12.90
2023-04-22T19:48:14.656Z,12.80
2023-04-22T19:50:43.800Z,12.60
2023-04-22T19:53:11.789Z,12.50
2023-04-22T19:55:39.718Z,12.40
2023-04-22T19:58:07.648Z,12.30
2023-04-22T20:00:35.903Z,12.20
2023-04-22T20:03:06.698Z,12.10
2023-04-22T20:05:34.922Z,12.00
2023-04-22T20:08:03.171Z,12.00
2023-04-22T20:10:31.682Z,11.90
2023-04-22T20:12:59.848Z,11.80
2023-04-22T20:15:27.866Z,11.70
2023-04-22T20:17:55.994Z,11.60
2023-04-22T20:20:25.639Z,11.60
2023-04-22T20:22:54.683Z,11.60
2023-04-22T20:25:23.156Z,11.60
2023-04-22T20:27:51.355Z,11.50
2023-04-22T20:30:19.321Z,11.40
2023-04-22T20:32:47.371Z,11.30
2023-04-22T20:35:16.540Z,11.20
2023-04-22T20:37:47.131Z,11.10
2023-04-22T20:40:15.952Z,11.00
2023-04-22T20:42:44.077Z,11.00
2023-04-22T20:45:15.358Z,10.90
2023-04-22T20:47:43.391Z,10.80
2023-04-22T20:50:13.070Z,10.70
2023-04-22T20:52:41.273Z,10.60
2023-04-22T20:55:11.065Z,10.50
2023-04-22T20:57:38.930Z,10.50
2023-04-22T21:00:08.545Z,10.40
2023-04-22T21:02:37.354Z,10.30
2023-04-22T21:05:06.673Z,10.30
2023-04-22T21:07:35.719Z,10.20
2023-04-22T21:10:03.755Z,10.10
2023-04-22T21:12:33.180Z,10.10
2023-04-22T21:15:01.409Z,10.10
2023-04-22T21:17:31.313Z,10.00
2023-04-22T21:19:59.584Z,10.00
2023-04-22T21:22:27.593Z,9.90
2023-04-22T21:24:55.734Z,9.90
2023-04-22T21:27:23.887Z,9.90
2023-04-22T21:29:54.191Z,9.90
2023-04-22T21:32:22.120Z,9.90
2023-04-22T21:34:58.958Z,9.80
2023-04-22T21:37:26.861Z,9.70
2023-04-22T21:39:54.702Z,9.70
2023-04-22T21:42:22.556Z,9.60
2023-04-22T21:44:50.411Z,9.50
2023-04-22T21:47:19.634Z,9.50
2023-04-22T21:49:47.990Z,9.40
2023-04-22T21:52:16.350Z,9.40
2023-04-22T21:54:44.346Z,9.40
2023-04-22T21:57:12.285Z,9.30
2023-04-22T21:59:40.122Z,9.30
2023-04-22T22:02:07.965Z,9.30
2023-04-22T22:04:37.326Z,9.20
2023-04-22T22:07:05.354Z,9.20
2023-04-22T22:09:33.328Z,9.10
2023-04-22T22:12:01.484Z,9.00
2023-04-22T22:14:29.344Z,8.90
2023-04-22T22:16:57.212Z,8.90
2023-04-22T22:19:27.671Z,8.90
2023-04-22T22:21:56.936Z,8.80
2023-04-22T22:24:24.826Z,8.80
2023-04-22T22:26:52.680Z,8.70
2023-04-22T22:29:20.564Z,8.70
2023-04-22T22:31:48.420Z,8.70
2023-04-22T22:34:16.260Z,8.70
2023-04-22T22:36:44.197Z,8.60
2023-04-22T22:39:15.947Z,8.60
2023-04-22T22:41:44.212Z,8.50
2023-04-22T22:44:12.246Z,8.50
2023-04-22T22:46:41.019Z,8.40
2023-04-22T22:49:08.970Z,8.40
2023-04-22T22:51:37.464Z,8.40
2023-04-22T22:54:05.686Z,8.30
2023-04-22T22:56:34.967Z,8.20
2023-04-22T22:59:02.834Z,8.20
2023-04-22T23:01:30.911Z,8.20
2023-04-22T23:03:59.115Z,8.10
2023-04-22T23:06:27.127Z,8.10
2023-04-22T23:08:55.058Z,8.00
2023-04-22T23:11:22.956Z,8.00
2023-04-22T23:13:52.202Z,8.00
2023-04-22T23:16:20.096Z,7.90
2023-04-22T23:18:48.863Z,7.80
2023-04-22T23:21:17.093Z,7.80
2023-04-22T23:23:45.784Z,7.80
2023-04-22T23:26:13.885Z,7.70
2023-04-22T23:28:41.972Z,7.70
2023-04-22T23:31:11.502Z,7.70
2023-04-22T23:33:42.064Z,7.70
2023-04-22T23:36:10.342Z,7.70
2023-04-22T23:38:38.172Z,7.60
2023-04-22T23:41:06.021Z,7.70
2023-04-22T23:43:33.909Z,7.60
2023-04-22T23:46:01.786Z,7.60
2023-04-22T23:48:31.197Z,7.50
2023-04-22T23:50:59.186Z,7.40
2023-04-22T23:53:27.041Z,7.40
2023-04-22T23:55:55.170Z,7.40
2023-04-22T23:58:23.212Z,7.30
